sensor_id;sensor_type;location;lat;lon;timestamp;temperature;humidity
55211;DHT22;41082;52.822;6.666;2023-02-15T00:01:44;2.80;99.90
55211;DHT22;41082;52.822;6.666;2023-02-15T00:04:13;2.80;99.90
55211;DHT22;41082;52.822;6.666;2023-02-15T00:06:38;2.70;99.90
55211;DHT22;41082;52.822;6.666;2023-02-15T00:09:04;2.80;99.90
55211;DHT22;41082;52.822;6.666;2023-02-15T00:11:30;2.70;99.90
55211;DHT22;41082;52.822;6.666;2023-02-15T00:16:35;2.70;99.90
55211;DHT22;41082;52.822;6.666;2023-02-15T00:19:01;2.60;99.90
55211;DHT22;41082;52.822;6.666;2023-02-15T00:21:31;2.60;99.90
55211;DHT22;41082;52.822;6.666;2023-02-15T00:23:58;2.60;99.90
55211;DHT22;41082;52.822;6.666;2023-02-15T00:26:24;2.60;99.90
55211;DHT22;41082;52.822;6.666;2023-02-15T00:28:50;2.50;99.90
55211;DHT22;41082;52.822;6.666;2023-02-15T00:31:15;2.50;99.90
55211;DHT22;41082;52.822;6.666;2023-02-15T00:33:41;2.50;99.90
55211;DHT22;41082;52.822;6.666;2023-02-15T00:36:08;2.50;99.90
55211;DHT22;41082;52.822;6.666;2023-02-15T00:38:35;2.50;99.90
55211;DHT22;41082;52.822;6.666;2023-02-15T00:41:03;2.50;99.90
55211;DHT22;41082;52.822;6.666;2023-02-15T00:43:32;2.50;99.90
55211;DHT22;41082;52.822;6.666;2023-02-15T00:45:58;2.40;99.90
55211;DHT22;41082;52.822;6.666;2023-02-15T00:48:24;2.40;99.90
55211;DHT22;41082;52.822;6.666;2023-02-15T00:50:52;2.40;99.90
55211;DHT22;41082;52.822;6.666;2023-02-15T00:53:17;2.40;99.90
55211;DHT22;41082;52.822;6.666;2023-02-15T00:55:43;2.40;99.90
55211;DHT22;41082;52.822;6.666;2023-02-15T00:58:10;2.40;99.90
55211;DHT22;41082;52.822;6.666;2023-02-15T01:00:36;2.40;99.90
55211;DHT22;41082;52.822;6.666;2023-02-15T01:03:02;2.30;99.90
55211;DHT22;41082;52.822;6.666;2023-02-15T01:05:29;2.30;99.90
55211;DHT22;41082;52.822;6.666;2023-02-15T01:07:56;2.30;99.90
55211;DHT22;41082;52.822;6.666;2023-02-15T01:10:22;2.30;99.90
55211;DHT22;41082;52.822;6.666;2023-02-15T01:12:48;2.30;99.90
55211;DHT22;41082;52.822;6.666;2023-02-15T01:15:14;2.20;99.90
55211;DHT22;41082;52.822;6.666;2023-02-15T01:17:40;2.20;99.90
55211;DHT22;41082;52.822;6.666;2023-02-15T01:20:06;2.20;99.90
55211;DHT22;41082;52.822;6.666;2023-02-15T01:22:32;2.20;99.90
55211;DHT22;41082;52.822;6.666;2023-02-15T01:24:57;2.10;99.90
55211;DHT22;41082;52.822;6.666;2023-02-15T01:27:23;2.10;99.90
55211;DHT22;41082;52.822;6.666;2023-02-15T01:29:48;2.10;99.90
55211;DHT22;41082;52.822;6.666;2023-02-15T01:32:14;2.10;99.90
55211;DHT22;41082;52.822;6.666;2023-02-15T01:34:39;2.10;99.90
55211;DHT22;41082;52.822;6.666;2023-02-15T01:37:05;2.10;99.90
55211;DHT22;41082;52.822;6.666;2023-02-15T01:39:30;2.10;99.90
55211;DHT22;41082;52.822;6.666;2023-02-15T01:41:56;2.10;99.90
55211;DHT22;41082;52.822;6.666;2023-02-15T01:47:32;2.00;99.90
55211;DHT22;41082;52.822;6.666;2023-02-15T01:52:36;1.90;99.90
55211;DHT22;41082;52.822;6.666;2023-02-15T01:55:03;1.90;99.90
55211;DHT22;41082;52.822;6.666;2023-02-15T01:57:29;1.90;99.90
55211;DHT22;41082;52.822;6.666;2023-02-15T01:59:58;1.90;99.90
55211;DHT22;41082;52.822;6.666;2023-02-15T02:02:25;1.90;99.90
55211;DHT22;41082;52.822;6.666;2023-02-15T02:04:53;1.90;99.90
55211;DHT22;41082;52.822;6.666;2023-02-15T02:07:23;1.80;99.90
55211;DHT22;41082;52.822;6.666;2023-02-15T02:09:49;1.90;99.90
55211;DHT22;41082;52.822;6.666;2023-02-15T02:12:18;1.80;99.90
55211;DHT22;41082;52.822;6.666;2023-02-15T02:14:47;1.80;99.90
55211;DHT22;41082;52.822;6.666;2023-02-15T02:17:42;1.80;99.90
55211;DHT22;41082;52.822;6.666;2023-02-15T02:35:16;1.70;99.90
55211;DHT22;41082;52.822;6.666;2023-02-15T02:46:35;1.60;99.90
55211;DHT22;41082;52.822;6.666;2023-02-15T02:49:02;1.60;99.90
55211;DHT22;41082;52.822;6.666;2023-02-15T02:51:28;1.60;99.90
55211;DHT22;41082;52.822;6.666;2023-02-15T02:53:55;1.50;99.90
55211;DHT22;41082;52.822;6.666;2023-02-15T02:56:44;1.60;99.90
55211;DHT22;41082;52.822;6.666;2023-02-15T02:59:16;1.50;99.90
55211;DHT22;41082;52.822;6.666;2023-02-15T03:01:52;1.50;99.90
55211;DHT22;41082;52.822;6.666;2023-02-15T03:04:26;1.50;99.90
55211;DHT22;41082;52.822;6.666;2023-02-15T03:06:59;1.50;99.90
55211;DHT22;41082;52.822;6.666;2023-02-15T03:09:30;1.50;99.90
55211;DHT22;41082;52.822;6.666;2023-02-15T03:12:19;1.50;99.90
55211;DHT22;41082;52.822;6.666;2023-02-15T03:14:48;1.50;99.90
55211;DHT22;41082;52.822;6.666;2023-02-15T03:17:17;1.40;99.90
55211;DHT22;41082;52.822;6.666;2023-02-15T03:19:45;1.40;99.90
55211;DHT22;41082;52.822;6.666;2023-02-15T03:22:19;1.40;99.90
55211;DHT22;41082;52.822;6.666;2023-02-15T03:25:01;1.30;99.90
55211;DHT22;41082;52.822;6.666;2023-02-15T03:27:36;1.30;99.90
55211;DHT22;41082;52.822;6.666;2023-02-15T03:30:04;1.30;99.90
55211;DHT22;41082;52.822;6.666;2023-02-15T03:32:33;1.30;99.90
55211;DHT22;41082;52.822;6.666;2023-02-15T03:35:00;1.30;99.90
55211;DHT22;41082;52.822;6.666;2023-02-15T03:45:40;1.20;99.90
55211;DHT22;41082;52.822;6.666;2023-02-15T03:48:28;1.20;99.90
55211;DHT22;41082;52.822;6.666;2023-02-15T03:50:58;1.20;99.90
55211;DHT22;41082;52.822;6.666;2023-02-15T03:53:46;1.20;99.90
55211;DHT22;41082;52.822;6.666;2023-02-15T03:56:12;1.10;99.90
55211;DHT22;41082;52.822;6.666;2023-02-15T03:58:38;1.10;99.90
55211;DHT22;41082;52.822;6.666;2023-02-15T04:01:33;1.10;99.90
55211;DHT22;41082;52.822;6.666;2023-02-15T04:04:33;1.10;99.90
55211;DHT22;41082;52.822;6.666;2023-02-15T04:07:00;1.10;99.90
55211;DHT22;41082;52.822;6.666;2023-02-15T04:09:25;1.10;99.90
55211;DHT22;41082;52.822;6.666;2023-02-15T04:12:09;1.10;99.90
55211;DHT22;41082;52.822;6.666;2023-02-15T04:14:35;1.10;99.90
55211;DHT22;41082;52.822;6.666;2023-02-15T04:17:19;1.00;99.90
55211;DHT22;41082;52.822;6.666;2023-02-15T04:19:45;1.00;99.90
55211;DHT22;41082;52.822;6.666;2023-02-15T04:22:29;1.00;99.90
55211;DHT22;41082;52.822;6.666;2023-02-15T04:25:13;1.00;99.90
55211;DHT22;41082;52.822;6.666;2023-02-15T04:27:44;1.00;99.90
55211;DHT22;41082;52.822;6.666;2023-02-15T04:30:11;1.00;99.90
55211;DHT22;41082;52.822;6.666;2023-02-15T04:32:37;1.00;99.90
55211;DHT22;41082;52.822;6.666;2023-02-15T04:35:04;1.00;99.90
55211;DHT22;41082;52.822;6.666;2023-02-15T04:37:31;1.00;99.90
55211;DHT22;41082;52.822;6.666;2023-02-15T04:39:57;1.00;99.90
55211;DHT22;41082;52.822;6.666;2023-02-15T04:42:26;0.90;99.90
55211;DHT22;41082;52.822;6.666;2023-02-15T04:44:53;0.90;99.90
55211;DHT22;41082;52.822;6.666;2023-02-15T04:47:19;0.90;99.90
55211;DHT22;41082;52.822;6.666;2023-02-15T04:49:45;1.00;99.90
55211;DHT22;41082;52.822;6.666;2023-02-15T04:52:11;1.00;99.90
55211;DHT22;41082;52.822;6.666;2023-02-15T04:54:37;1.00;99.90
55211;DHT22;41082;52.822;6.666;2023-02-15T04:57:03;0.90;99.90
55211;DHT22;41082;52.822;6.666;2023-02-15T04:59:29;0.90;99.90
55211;DHT22;41082;52.822;6.666;2023-02-15T05:01:54;0.90;99.90
55211;DHT22;41082;52.822;6.666;2023-02-15T05:04:20;0.90;99.90
55211;DHT22;41082;52.822;6.666;2023-02-15T05:06:45;1.00;99.90
55211;DHT22;41082;52.822;6.666;2023-02-15T05:09:12;0.90;99.90
55211;DHT22;41082;52.822;6.666;2023-02-15T05:11:38;0.90;99.90
55211;DHT22;41082;52.822;6.666;2023-02-15T05:14:04;1.00;99.90
55211;DHT22;41082;52.822;6.666;2023-02-15T05:16:29;1.00;99.90
55211;DHT22;41082;52.822;6.666;2023-02-15T05:18:55;1.00;99.90
55211;DHT22;41082;52.822;6.666;2023-02-15T05:21:21;0.90;99.90
55211;DHT22;41082;52.822;6.666;2023-02-15T05:23:46;0.90;99.90
55211;DHT22;41082;52.822;6.666;2023-02-15T05:26:18;0.90;99.90
55211;DHT22;41082;52.822;6.666;2023-02-15T05:29:03;0.90;99.90
55211;DHT22;41082;52.822;6.666;2023-02-15T05:31:30;0.90;99.90
55211;DHT22;41082;52.822;6.666;2023-02-15T05:33:56;0.90;99.90
55211;DHT22;41082;52.822;6.666;2023-02-15T05:36:22;1.00;99.90
55211;DHT22;41082;52.822;6.666;2023-02-15T05:38:47;0.90;99.90
55211;DHT22;41082;52.822;6.666;2023-02-15T05:41:13;0.90;99.90
55211;DHT22;41082;52.822;6.666;2023-02-15T05:43:39;0.90;99.90
55211;DHT22;41082;52.822;6.666;2023-02-15T05:46:06;0.90;99.90
55211;DHT22;41082;52.822;6.666;2023-02-15T05:48:31;0.90;99.90
55211;DHT22;41082;52.822;6.666;2023-02-15T05:53:31;0.90;99.90
55211;DHT22;41082;52.822;6.666;2023-02-15T05:55:57;0.90;99.90
55211;DHT22;41082;52.822;6.666;2023-02-15T05:58:31;0.90;99.90
55211;DHT22;41082;52.822;6.666;2023-02-15T06:00:57;0.90;99.90
55211;DHT22;41082;52.822;6.666;2023-02-15T06:03:23;0.90;99.90
55211;DHT22;41082;52.822;6.666;2023-02-15T06:05:51;0.90;99.90
55211;DHT22;41082;52.822;6.666;2023-02-15T06:08:17;0.90;99.90
55211;DHT22;41082;52.822;6.666;2023-02-15T06:10:44;0.90;99.90
55211;DHT22;41082;52.822;6.666;2023-02-15T06:13:10;0.90;99.90
55211;DHT22;41082;52.822;6.666;2023-02-15T06:15:36;0.90;99.90
55211;DHT22;41082;52.822;6.666;2023-02-15T06:18:01;0.90;99.90
55211;DHT22;41082;52.822;6.666;2023-02-15T06:20:27;0.90;99.90
55211;DHT22;41082;52.822;6.666;2023-02-15T06:22:53;0.90;99.90
55211;DHT22;41082;52.822;6.666;2023-02-15T06:25:18;1.00;99.90
55211;DHT22;41082;52.822;6.666;2023-02-15T06:27:44;1.00;99.90
55211;DHT22;41082;52.822;6.666;2023-02-15T06:30:11;1.00;99.90
55211;DHT22;41082;52.822;6.666;2023-02-15T06:32:36;1.00;99.90
55211;DHT22;41082;52.822;6.666;2023-02-15T06:35:02;1.00;99.90
55211;DHT22;41082;52.822;6.666;2023-02-15T06:37:28;1.10;99.90
55211;DHT22;41082;52.822;6.666;2023-02-15T06:39:53;1.00;99.90
55211;DHT22;41082;52.822;6.666;2023-02-15T06:42:19;1.10;99.90
55211;DHT22;41082;52.822;6.666;2023-02-15T06:44:45;1.10;99.90
55211;DHT22;41082;52.822;6.666;2023-02-15T06:47:11;1.10;99.90
55211;DHT22;41082;52.822;6.666;2023-02-15T06:49:37;1.10;99.90
55211;DHT22;41082;52.822;6.666;2023-02-15T06:52:03;1.10;99.90
55211;DHT22;41082;52.822;6.666;2023-02-15T06:54:29;1.10;99.90
55211;DHT22;41082;52.822;6.666;2023-02-15T06:56:55;1.10;99.90
55211;DHT22;41082;52.822;6.666;2023-02-15T06:59:21;1.10;99.90
55211;DHT22;41082;52.822;6.666;2023-02-15T07:01:47;1.20;99.90
55211;DHT22;41082;52.822;6.666;2023-02-15T07:04:13;1.20;99.90
55211;DHT22;41082;52.822;6.666;2023-02-15T07:06:38;1.20;99.90
55211;DHT22;41082;52.822;6.666;2023-02-15T07:09:04;1.20;99.90
55211;DHT22;41082;52.822;6.666;2023-02-15T07:11:30;1.30;99.90
55211;DHT22;41082;52.822;6.666;2023-02-15T07:14:14;1.30;99.90
55211;DHT22;41082;52.822;6.666;2023-02-15T07:16:40;1.40;99.90
55211;DHT22;41082;52.822;6.666;2023-02-15T07:19:06;1.40;99.90
55211;DHT22;41082;52.822;6.666;2023-02-15T07:21:33;1.50;99.90
55211;DHT22;41082;52.822;6.666;2023-02-15T07:23:58;1.50;99.90
55211;DHT22;41082;52.822;6.666;2023-02-15T07:26:24;1.60;99.90
55211;DHT22;41082;52.822;6.666;2023-02-15T07:28:50;1.60;99.90
55211;DHT22;41082;52.822;6.666;2023-02-15T07:31:15;1.70;99.90
55211;DHT22;41082;52.822;6.666;2023-02-15T07:33:41;1.70;99.90
55211;DHT22;41082;52.822;6.666;2023-02-15T07:36:07;1.80;99.90
55211;DHT22;41082;52.822;6.666;2023-02-15T07:38:39;1.80;99.90
55211;DHT22;41082;52.822;6.666;2023-02-15T07:41:08;1.90;99.90
55211;DHT22;41082;52.822;6.666;2023-02-15T07:43:37;1.90;99.90
55211;DHT22;41082;52.822;6.666;2023-02-15T07:46:05;2.00;99.90
55211;DHT22;41082;52.822;6.666;2023-02-15T07:48:31;2.10;99.90
55211;DHT22;41082;52.822;6.666;2023-02-15T07:51:01;2.10;99.90
55211;DHT22;41082;52.822;6.666;2023-02-15T07:53:27;2.10;99.90
55211;DHT22;41082;52.822;6.666;2023-02-15T07:55:53;2.20;99.90
55211;DHT22;41082;52.822;6.666;2023-02-15T07:58:20;2.30;99.90
55211;DHT22;41082;52.822;6.666;2023-02-15T08:00:45;2.30;99.90
55211;DHT22;41082;52.822;6.666;2023-02-15T08:03:24;2.30;99.90
55211;DHT22;41082;52.822;6.666;2023-02-15T08:05:56;2.40;99.90
55211;DHT22;41082;52.822;6.666;2023-02-15T08:08:22;2.40;99.90
55211;DHT22;41082;52.822;6.666;2023-02-15T08:19:01;2.70;99.90
55211;DHT22;41082;52.822;6.666;2023-02-15T08:21:28;2.70;99.90
55211;DHT22;41082;52.822;6.666;2023-02-15T08:23:55;2.80;99.90
55211;DHT22;41082;52.822;6.666;2023-02-15T08:26:21;2.80;99.90
55211;DHT22;41082;52.822;6.666;2023-02-15T08:28:47;2.90;99.90
55211;DHT22;41082;52.822;6.666;2023-02-15T08:31:14;2.90;99.90
55211;DHT22;41082;52.822;6.666;2023-02-15T08:33:42;3.00;99.90
55211;DHT22;41082;52.822;6.666;2023-02-15T08:36:10;3.00;99.90
55211;DHT22;41082;52.822;6.666;2023-02-15T08:38:37;3.10;99.90
55211;DHT22;41082;52.822;6.666;2023-02-15T08:41:13;3.10;99.90
55211;DHT22;41082;52.822;6.666;2023-02-15T08:43:39;3.20;99.90
55211;DHT22;41082;52.822;6.666;2023-02-15T08:46:06;3.20;99.90
55211;DHT22;41082;52.822;6.666;2023-02-15T08:48:31;3.20;99.90
55211;DHT22;41082;52.822;6.666;2023-02-15T08:50:57;3.30;99.90
55211;DHT22;41082;52.822;6.666;2023-02-15T08:53:23;3.30;99.90
55211;DHT22;41082;52.822;6.666;2023-02-15T08:55:56;3.40;99.90
55211;DHT22;41082;52.822;6.666;2023-02-15T08:58:22;3.40;99.90
55211;DHT22;41082;52.822;6.666;2023-02-15T09:00:49;3.50;99.90
55211;DHT22;41082;52.822;6.666;2023-02-15T09:03:14;3.50;99.90
55211;DHT22;41082;52.822;6.666;2023-02-15T09:05:40;3.60;99.90
55211;DHT22;41082;52.822;6.666;2023-02-15T09:08:05;3.70;99.90
55211;DHT22;41082;52.822;6.666;2023-02-15T09:10:31;3.70;99.90
55211;DHT22;41082;52.822;6.666;2023-02-15T09:12:56;3.80;99.90
55211;DHT22;41082;52.822;6.666;2023-02-15T09:15:22;3.90;99.90
55211;DHT22;41082;52.822;6.666;2023-02-15T09:17:48;3.90;99.90
55211;DHT22;41082;52.822;6.666;2023-02-15T09:20:13;4.00;99.90
55211;DHT22;41082;52.822;6.666;2023-02-15T09:22:39;4.10;99.90
55211;DHT22;41082;52.822;6.666;2023-02-15T09:25:04;4.20;99.90
55211;DHT22;41082;52.822;6.666;2023-02-15T09:27:30;4.30;99.90
55211;DHT22;41082;52.822;6.666;2023-02-15T09:29:56;4.30;99.90
55211;DHT22;41082;52.822;6.666;2023-02-15T09:32:21;4.40;99.90
55211;DHT22;41082;52.822;6.666;2023-02-15T09:34:47;4.50;99.90
55211;DHT22;41082;52.822;6.666;2023-02-15T09:37:13;4.50;99.90
55211;DHT22;41082;52.822;6.666;2023-02-15T09:39:41;4.60;99.90
55211;DHT22;41082;52.822;6.666;2023-02-15T09:56:06;5.00;99.90
55211;DHT22;41082;52.822;6.666;2023-02-15T09:59:11;5.10;99.90
55211;DHT22;41082;52.822;6.666;2023-02-15T10:10:12;5.50;99.90
55211;DHT22;41082;52.822;6.666;2023-02-15T10:12:57;5.60;99.90
55211;DHT22;41082;52.822;6.666;2023-02-15T10:15:40;5.60;99.90
55211;DHT22;41082;52.822;6.666;2023-02-15T10:26:18;6.00;99.90
55211;DHT22;41082;52.822;6.666;2023-02-15T10:39:42;6.40;99.90
55211;DHT22;41082;52.822;6.666;2023-02-15T10:42:30;6.50;99.90
55211;DHT22;41082;52.822;6.666;2023-02-15T10:48:22;6.70;99.90
55211;DHT22;41082;52.822;6.666;2023-02-15T10:50:52;6.80;99.90
55211;DHT22;41082;52.822;6.666;2023-02-15T10:53:49;6.80;99.90
55211;DHT22;41082;52.822;6.666;2023-02-15T10:56:39;6.90;99.90
55211;DHT22;41082;52.822;6.666;2023-02-15T11:01:52;7.10;99.90
55211;DHT22;41082;52.822;6.666;2023-02-15T11:06:54;7.20;99.90
55211;DHT22;41082;52.822;6.666;2023-02-15T11:09:24;7.30;99.90
55211;DHT22;41082;52.822;6.666;2023-02-15T11:11:56;7.30;99.90
55211;DHT22;41082;52.822;6.666;2023-02-15T11:14:50;7.40;99.90
55211;DHT22;41082;52.822;6.666;2023-02-15T11:17:26;7.50;99.90
55211;DHT22;41082;52.822;6.666;2023-02-15T11:20:31;7.60;99.90
55211;DHT22;41082;52.822;6.666;2023-02-15T11:22:59;7.70;99.90
55211;DHT22;41082;52.822;6.666;2023-02-15T11:25:30;7.80;99.90
55211;DHT22;41082;52.822;6.666;2023-02-15T11:27:56;7.90;99.90
55211;DHT22;41082;52.822;6.666;2023-02-15T11:30:26;7.90;99.90
55211;DHT22;41082;52.822;6.666;2023-02-15T11:32:58;8.10;99.90
55211;DHT22;41082;52.822;6.666;2023-02-15T11:35:47;8.10;99.90
55211;DHT22;41082;52.822;6.666;2023-02-15T11:38:24;8.20;99.90
55211;DHT22;41082;52.822;6.666;2023-02-15T11:40:57;8.30;99.90
55211;DHT22;41082;52.822;6.666;2023-02-15T11:43:31;8.30;99.90
55211;DHT22;41082;52.822;6.666;2023-02-15T11:45:58;8.40;99.90
55211;DHT22;41082;52.822;6.666;2023-02-15T11:48:23;8.50;99.90
55211;DHT22;41082;52.822;6.666;2023-02-15T11:50:49;8.50;99.90
55211;DHT22;41082;52.822;6.666;2023-02-15T11:53:17;8.60;99.90
55211;DHT22;41082;52.822;6.666;2023-02-15T11:55:44;8.70;99.90
55211;DHT22;41082;52.822;6.666;2023-02-15T11:58:21;8.80;99.90
55211;DHT22;41082;52.822;6.666;2023-02-15T12:00:52;8.90;99.90
55211;DHT22;41082;52.822;6.666;2023-02-15T12:03:43;8.90;99.90
55211;DHT22;41082;52.822;6.666;2023-02-15T12:06:24;9.00;99.90
55211;DHT22;41082;52.822;6.666;2023-02-15T12:11:38;9.00;99.90
55211;DHT22;41082;52.822;6.666;2023-02-15T12:14:08;9.10;99.90
55211;DHT22;41082;52.822;6.666;2023-02-15T12:21:59;9.30;99.90
55211;DHT22;41082;52.822;6.666;2023-02-15T12:24:38;9.40;99.90
55211;DHT22;41082;52.822;6.666;2023-02-15T12:27:20;9.50;99.90
55211;DHT22;41082;52.822;6.666;2023-02-15T12:30:06;9.60;99.90
55211;DHT22;41082;52.822;6.666;2023-02-15T12:32:50;9.70;99.90
55211;DHT22;41082;52.822;6.666;2023-02-15T12:35:26;9.70;99.90
55211;DHT22;41082;52.822;6.666;2023-02-15T12:37:55;9.70;99.90
55211;DHT22;41082;52.822;6.666;2023-02-15T12:40:25;9.80;99.90
55211;DHT22;41082;52.822;6.666;2023-02-15T12:42:53;9.90;99.90
55211;DHT22;41082;52.822;6.666;2023-02-15T12:45:27;9.90;99.90
55211;DHT22;41082;52.822;6.666;2023-02-15T12:50:37;9.90;99.90
55211;DHT22;41082;52.822;6.666;2023-02-15T12:53:33;9.80;99.90
55211;DHT22;41082;52.822;6.666;2023-02-15T12:56:04;9.90;99.90
55211;DHT22;41082;52.822;6.666;2023-02-15T12:58:35;9.90;99.90
55211;DHT22;41082;52.822;6.666;2023-02-15T13:01:21;9.90;99.90
55211;DHT22;41082;52.822;6.666;2023-02-15T13:04:13;9.90;99.90
55211;DHT22;41082;52.822;6.666;2023-02-15T13:06:47;9.90;99.90
55211;DHT22;41082;52.822;6.666;2023-02-15T13:09:21;10.00;99.90
55211;DHT22;41082;52.822;6.666;2023-02-15T13:11:49;10.00;99.90
55211;DHT22;41082;52.822;6.666;2023-02-15T13:14:28;10.00;99.90
55211;DHT22;41082;52.822;6.666;2023-02-15T13:16:58;10.10;99.90
55211;DHT22;41082;52.822;6.666;2023-02-15T13:19:33;10.00;99.90
55211;DHT22;41082;52.822;6.666;2023-02-15T13:22:04;10.00;99.90
55211;DHT22;41082;52.822;6.666;2023-02-15T13:24:41;10.00;99.90
55211;DHT22;41082;52.822;6.666;2023-02-15T13:27:14;10.00;99.90
55211;DHT22;41082;52.822;6.666;2023-02-15T13:29:43;10.10;99.90
55211;DHT22;41082;52.822;6.666;2023-02-15T13:34:48;10.10;99.90
55211;DHT22;41082;52.822;6.666;2023-02-15T13:37:21;10.20;99.90
55211;DHT22;41082;52.822;6.666;2023-02-15T13:40:01;10.20;99.90
55211;DHT22;41082;52.822;6.666;2023-02-15T13:42:52;10.20;99.90
55211;DHT22;41082;52.822;6.666;2023-02-15T13:46:01;10.30;99.90
55211;DHT22;41082;52.822;6.666;2023-02-15T13:51:16;10.40;99.90
55211;DHT22;41082;52.822;6.666;2023-02-15T13:59:41;10.50;99.90
55211;DHT22;41082;52.822;6.666;2023-02-15T14:15:55;10.70;99.90
55211;DHT22;41082;52.822;6.666;2023-02-15T14:18:33;10.70;99.90
55211;DHT22;41082;52.822;6.666;2023-02-15T14:21:16;10.70;99.90
55211;DHT22;41082;52.822;6.666;2023-02-15T14:26:59;10.80;99.90
55211;DHT22;41082;52.822;6.666;2023-02-15T14:29:51;10.70;99.90
55211;DHT22;41082;52.822;6.666;2023-02-15T14:35:00;10.70;99.90
55211;DHT22;41082;52.822;6.666;2023-02-15T14:44:05;10.60;99.90
55211;DHT22;41082;52.822;6.666;2023-02-15T14:46:50;10.70;99.90
55211;DHT22;41082;52.822;6.666;2023-02-15T14:49:30;10.60;99.90
55211;DHT22;41082;52.822;6.666;2023-02-15T15:04:42;10.60;99.90
55211;DHT22;41082;52.822;6.666;2023-02-15T15:07:22;10.60;99.90
55211;DHT22;41082;52.822;6.666;2023-02-15T15:10:04;10.60;99.90
55211;DHT22;41082;52.822;6.666;2023-02-15T15:12:41;10.60;99.90
55211;DHT22;41082;52.822;6.666;2023-02-15T15:15:10;10.60;99.90
55211;DHT22;41082;52.822;6.666;2023-02-15T15:20:37;10.50;99.90
55211;DHT22;41082;52.822;6.666;2023-02-15T15:25:43;10.50;99.90
55211;DHT22;41082;52.822;6.666;2023-02-15T15:34:21;10.40;99.90
55211;DHT22;41082;52.822;6.666;2023-02-15T15:37:15;10.40;99.90
55211;DHT22;41082;52.822;6.666;2023-02-15T15:39:52;10.30;99.90
55211;DHT22;41082;52.822;6.666;2023-02-15T15:42:43;10.30;99.90
55211;DHT22;41082;52.822;6.666;2023-02-15T15:45:25;10.30;99.90
55211;DHT22;41082;52.822;6.666;2023-02-15T15:50:43;10.20;99.90
55211;DHT22;41082;52.822;6.666;2023-02-15T15:53:29;10.10;99.90
55211;DHT22;41082;52.822;6.666;2023-02-15T15:56:05;10.10;99.90
55211;DHT22;41082;52.822;6.666;2023-02-15T15:58:33;10.10;99.90
55211;DHT22;41082;52.822;6.666;2023-02-15T16:01:09;10.00;99.90
55211;DHT22;41082;52.822;6.666;2023-02-15T16:03:36;10.00;99.90
55211;DHT22;41082;52.822;6.666;2023-02-15T16:06:02;10.00;99.90
55211;DHT22;41082;52.822;6.666;2023-02-15T16:08:30;9.90;99.90
55211;DHT22;41082;52.822;6.666;2023-02-15T16:10:56;9.90;99.90
55211;DHT22;41082;52.822;6.666;2023-02-15T16:13:23;9.80;99.90
55211;DHT22;41082;52.822;6.666;2023-02-15T16:15:53;9.80;99.90
55211;DHT22;41082;52.822;6.666;2023-02-15T16:18:23;9.70;99.90
55211;DHT22;41082;52.822;6.666;2023-02-15T16:20:58;9.70;99.90
55211;DHT22;41082;52.822;6.666;2023-02-15T16:26:15;9.60;99.90
55211;DHT22;41082;52.822;6.666;2023-02-15T16:28:53;9.50;99.90
55211;DHT22;41082;52.822;6.666;2023-02-15T16:31:20;9.40;99.90
55211;DHT22;41082;52.822;6.666;2023-02-15T16:33:47;9.40;99.90
55211;DHT22;41082;52.822;6.666;2023-02-15T16:36:25;9.30;99.90
55211;DHT22;41082;52.822;6.666;2023-02-15T16:41:22;9.20;99.90
55211;DHT22;41082;52.822;6.666;2023-02-15T16:43:49;9.10;99.90
55211;DHT22;41082;52.822;6.666;2023-02-15T16:46:37;9.10;99.90
55211;DHT22;41082;52.822;6.666;2023-02-15T16:49:12;9.00;99.90
55211;DHT22;41082;52.822;6.666;2023-02-15T16:51:41;9.00;99.90
55211;DHT22;41082;52.822;6.666;2023-02-15T16:54:16;8.90;99.90
55211;DHT22;41082;52.822;6.666;2023-02-15T16:56:43;8.90;99.90
55211;DHT22;41082;52.822;6.666;2023-02-15T16:59:32;8.80;99.90
55211;DHT22;41082;52.822;6.666;2023-02-15T17:01:58;8.80;99.90
55211;DHT22;41082;52.822;6.666;2023-02-15T17:04:28;8.80;99.90
55211;DHT22;41082;52.822;6.666;2023-02-15T17:07:06;8.70;99.90
55211;DHT22;41082;52.822;6.666;2023-02-15T17:09:32;8.70;99.90
55211;DHT22;41082;52.822;6.666;2023-02-15T17:11:58;8.60;99.90
55211;DHT22;41082;52.822;6.666;2023-02-15T17:14:28;8.60;99.90
55211;DHT22;41082;52.822;6.666;2023-02-15T17:16:59;8.50;99.90
55211;DHT22;41082;52.822;6.666;2023-02-15T17:19:28;8.40;99.90
55211;DHT22;41082;52.822;6.666;2023-02-15T17:21:57;8.40;99.90
55211;DHT22;41082;52.822;6.666;2023-02-15T17:24:40;8.40;99.90
55211;DHT22;41082;52.822;6.666;2023-02-15T17:27:21;8.40;99.90
55211;DHT22;41082;52.822;6.666;2023-02-15T17:29:50;8.30;99.90
55211;DHT22;41082;52.822;6.666;2023-02-15T17:32:21;8.30;99.90
55211;DHT22;41082;52.822;6.666;2023-02-15T17:34:51;8.30;99.90
55211;DHT22;41082;52.822;6.666;2023-02-15T17:39:57;8.20;99.90
55211;DHT22;41082;52.822;6.666;2023-02-15T17:42:23;8.10;99.90
55211;DHT22;41082;52.822;6.666;2023-02-15T17:44:49;8.10;99.90
55211;DHT22;41082;52.822;6.666;2023-02-15T17:47:17;8.00;99.90
55211;DHT22;41082;52.822;6.666;2023-02-15T17:49:43;8.00;99.90
55211;DHT22;41082;52.822;6.666;2023-02-15T17:52:13;8.00;99.90
55211;DHT22;41082;52.822;6.666;2023-02-15T17:54:40;7.90;99.90
55211;DHT22;41082;52.822;6.666;2023-02-15T17:57:24;7.90;99.90
55211;DHT22;41082;52.822;6.666;2023-02-15T17:59:51;7.80;99.90
55211;DHT22;41082;52.822;6.666;2023-02-15T18:02:35;7.80;99.90
55211;DHT22;41082;52.822;6.666;2023-02-15T18:05:20;7.80;99.90
55211;DHT22;41082;52.822;6.666;2023-02-15T18:08:15;7.80;99.90
55211;DHT22;41082;52.822;6.666;2023-02-15T18:11:00;7.80;99.90
55211;DHT22;41082;52.822;6.666;2023-02-15T18:13:44;7.70;99.90
55211;DHT22;41082;52.822;6.666;2023-02-15T18:16:14;7.70;99.90
55211;DHT22;41082;52.822;6.666;2023-02-15T18:18:41;7.70;99.90
55211;DHT22;41082;52.822;6.666;2023-02-15T18:21:07;7.60;99.90
55211;DHT22;41082;52.822;6.666;2023-02-15T18:23:34;7.60;99.90
55211;DHT22;41082;52.822;6.666;2023-02-15T18:25:59;7.60;99.90
55211;DHT22;41082;52.822;6.666;2023-02-15T18:28:25;7.50;99.90
55211;DHT22;41082;52.822;6.666;2023-02-15T18:30:51;7.50;99.90
55211;DHT22;41082;52.822;6.666;2023-02-15T18:33:44;7.40;99.90
55211;DHT22;41082;52.822;6.666;2023-02-15T18:36:39;7.40;99.90
55211;DHT22;41082;52.822;6.666;2023-02-15T18:39:24;7.30;99.90
55211;DHT22;41082;52.822;6.666;2023-02-15T18:41:51;7.30;99.90
55211;DHT22;41082;52.822;6.666;2023-02-15T18:44:17;7.30;99.90
55211;DHT22;41082;52.822;6.666;2023-02-15T18:46:42;7.30;99.90
55211;DHT22;41082;52.822;6.666;2023-02-15T18:49:08;7.20;99.90
55211;DHT22;41082;52.822;6.666;2023-02-15T18:51:34;7.20;99.90
55211;DHT22;41082;52.822;6.666;2023-02-15T18:54:05;7.20;99.90
55211;DHT22;41082;52.822;6.666;2023-02-15T18:56:36;7.20;99.90
55211;DHT22;41082;52.822;6.666;2023-02-15T18:59:02;7.20;99.90
55211;DHT22;41082;52.822;6.666;2023-02-15T19:01:28;7.10;99.90
55211;DHT22;41082;52.822;6.666;2023-02-15T19:03:53;7.10;99.90
55211;DHT22;41082;52.822;6.666;2023-02-15T19:06:20;7.10;99.90
55211;DHT22;41082;52.822;6.666;2023-02-15T19:08:50;7.10;99.90
55211;DHT22;41082;52.822;6.666;2023-02-15T19:11:18;7.00;99.90
55211;DHT22;41082;52.822;6.666;2023-02-15T19:13:45;7.00;99.90